Weather observations for the past three days for
Dickson Municipal Airport
Imperial (Metric)
Date Time (cdt) Wind (mph) Vis. (mi.) Weather Sky Cond. Temperature (ºF) Relative Humidity Wind Chill (°F) Heat Index (°F) Pressure Precipitation (in)
Air Dwpt 6 hour altimeter (in) sea level (mb) 1 hr 3 hr 6 hr
Max. Min.
09 04:15 SW 5 10.00 NULL NULL 53.6 50 88% 29.81 0.0
09 03:55 SW 7 10.00 NULL NULL 55.4 51.8 88% 29.82 0.0
09 03:35 SW 8 10.00 NULL NULL 55.4 51.8 88% 29.81 0.0
09 03:15 SW 9 10.00 NULL NULL 55.4 51.8 88% 29.81 0.0
09 02:55 SW 7 10.00 NULL NULL 55.4 51.8 88% 29.81 0.0
09 02:35 SW 7 10.00 NULL NULL 55.4 51.8 88% 29.81 0.0
09 02:15 SW 8 10.00 NULL NULL 55.4 51.8 88% 29.8 0.0
09 01:55 SW 10 10.00 NULL NULL 53.6 50 88% 29.82 0.0
09 01:35 S 7 10.00 NULL NULL 53.6 50 88% 29.83 0.0
09 01:15 SW 7 10.00 NULL NULL 55.4 50 82% 29.84 0.0
09 00:55 SW 5 10.00 NULL NULL 55.4 50 82% 29.85 0.0
09 00:35 S 7 10.00 NULL NULL 55.4 50 82% 29.84 0.0
09 00:15 SW 6 10.00 NULL NULL 55.4 50 82% 29.85 0.0
08 23:55 SW 7 10.00 NULL NULL 57.2 48.2 72% 29.84 0.0
08 23:35 SW 8 10.00 NULL NULL 57.2 48.2 72% 29.84 0.0
08 23:15 SW 9 10.00 NULL NULL 59 48.2 68% 29.85 0.0
08 22:55 SW 8 G 15 10.00 NULL NULL 59 48.2 68% 29.85 0.0
08 22:35 S 10 G 16 10.00 NULL NULL 60.8 46.4 59% 29.85 0.0
08 22:15 S 10 10.00 NULL NULL 60.8 46.4 59% 29.85 0.0
08 21:55 S 8 10.00 NULL NULL 60.8 46.4 59% 29.85 0.0
08 21:35 S 8 10.00 NULL NULL 60.8 46.4 59% 29.85 0.0
08 21:15 S 9 10.00 NULL NULL 62.6 44.6 52% 29.85 0.0
08 20:55 S 6 10.00 NULL NULL 62.6 44.6 52% 29.85 0.0
08 20:35 S 7 10.00 NULL NULL 62.6 44.6 52% 29.85 0.0
08 20:15 S 7 10.00 NULL NULL 64.4 44.6 49% 29.85 0.0
08 19:55 S 7 10.00 NULL NULL 66.2 44.6 46% 29.84 0.0
08 19:35 S 5 10.00 NULL NULL 66.2 44.6 46% 29.84 0.0
08 19:15 S 5 10.00 NULL NULL 68 42.8 40% 29.85 0.0
08 18:55 S 6 10.00 NULL NULL 69.8 42.8 38% 29.85 0.0
08 18:35 S 8 10.00 NULL NULL 71.6 42.8 36% 29.85 0.0
08 18:15 S 7 10.00 NULL NULL 71.6 42.8 36% 29.86 0.0
08 17:55 S 7 G 14 10.00 NULL NULL 73.4 41 31% 29.86 0.0
08 17:35 SW 9 10.00 NULL NULL 73.4 41 31% 29.86 0.0
08 17:15 S 10 10.00 NULL NULL 73.4 41 31% 29.87 0.0
08 16:55 S 8 G 15 10.00 NULL NULL 73.4 41 31% 29.87 0.0
08 16:35 Vrbl 7 G 13 10.00 NULL NULL 71.6 39.2 31% 29.87 0.0
08 16:15 Vrbl 7 10.00 NULL NULL 73.4 41 31% 29.87 0.0
08 15:55 SW 10 10.00 NULL NULL 73.4 41 31% 29.88 0.0
08 15:35 SW 8 G 14 10.00 NULL NULL 71.6 39.2 31% 29.89 0.0
08 15:15 SW 12 10.00 NULL NULL 71.6 41 33% 29.89 0.0
08 14:55 S 8 G 15 10.00 NULL NULL 71.6 39.2 31% 29.91 0.0
08 14:35 SE 6 G 13 10.00 NULL NULL 71.6 39.2 31% 29.91 0.0
08 14:15 SW 10 10.00 NULL NULL 71.6 39.2 31% 29.92 0.0
08 13:55 S 10 G 17 10.00 NULL NULL 71.6 39.2 31% 29.93 0.0
08 13:35 Calm 10.00 NULL NULL 69.8 37.4 31% 29.94 0.0
08 13:15 SW 9 G 16 10.00 NULL NULL 68 37.4 33% 29.95 0.0
08 12:55 S 9 10.00 NULL NULL 69.8 37.4 31% 29.97 0.0
08 12:35 SW 10 10.00 NULL NULL 69.8 37.4 31% 29.97 0.0
08 12:15 S 8 10.00 NULL NULL 68 37.4 33% 29.98 0.0
08 11:55 SW 9 10.00 NULL NULL 68 37.4 33% 29.99 0.0
08 11:35 SW 9 G 15 10.00 NULL NULL 68 37.4 33% 30 0.0
08 11:15 S 10 10.00 NULL NULL 66.2 39.2 37% 30 0.0
08 10:55 S 9 10.00 NULL NULL 66.2 39.2 37% 30.01 0.0
08 10:35 S 9 10.00 NULL NULL 64.4 39.2 40% 30.02 0.0
08 10:15 S 12 10.00 NULL NULL 66.2 42.8 43% 30.02 0.0
08 09:55 S 10 10.00 NULL NULL 64.4 42.8 46% 30.03 0.0
08 09:35 S 8 10.00 NULL NULL 62.6 41 45% 30.03 0.0
08 09:15 S 8 10.00 NULL NULL 62.6 41 45% 30.03 0.0
08 08:55 S 7 10.00 NULL NULL 60.8 41 48% 30.04 0.0
08 08:35 S 5 G 13 10.00 NULL NULL 59 41 51% 30.05 0.0
08 08:15 S 5 10.00 NULL NULL 57.2 41 55% 30.04 0.0
08 07:55 S 6 10.00 NULL NULL 55.4 39.2 55% 30.04 0.0
08 07:35 S 5 10.00 NULL NULL 53.6 39.2 58% 30.04 0.0
08 07:15 S 6 10.00 NULL NULL 51.8 39.2 62% 30.04 0.0
08 06:55 S 5 10.00 NULL NULL 48.2 39.2 71% 47 30.03 0.0
08 06:35 S 5 10.00 NULL NULL 44.6 39.2 81% 43 30.02 0.0
08 06:15 Calm 10.00 NULL NULL 42.8 39.2 87% 30.02 0.0
08 05:55 Calm 10.00 NULL NULL 42.8 39.2 87% 30.01 0.0
08 05:35 Calm 10.00 NULL NULL 42.8 39.2 87% 30.01 0.0
08 05:15 Calm 10.00 NULL NULL 42.8 39.2 87% 30 0.0
08 04:55 SE 3 10.00 NULL NULL 42.8 41 93% 30 0.0
08 04:35 Calm 10.00 NULL NULL 42.8 41 93% 30 0.0
08 04:15 Calm 10.00 NULL NULL 42.8 41 93% 29.99 0.0
08 03:55 Calm 10.00 NULL NULL 42.8 39.2 87% 29.99 0.0
08 03:35 Calm 10.00 NULL NULL 44.6 39.2 81% 29.99 0.0
08 03:15 Calm 10.00 NULL NULL 44.6 41 87% 30 0.0
08 02:55 Calm 10.00 NULL NULL 44.6 39.2 81% 30 0.0
08 02:35 Calm 10.00 NULL NULL 44.6 41 87% 30.01 0.0
08 02:15 Calm 10.00 NULL NULL 44.6 41 87% 30.01 0.0
08 01:55 Calm 10.00 NULL NULL 46.4 41 82% 30.01 0.0
08 01:35 Calm 10.00 NULL NULL 44.6 41 87% 30.01 0.0
08 01:15 Calm 10.00 NULL NULL 44.6 42.8 93% 30.01 0.0
08 00:55 Calm 10.00 NULL NULL 46.4 41 82% 30.02 0.0
08 00:35 Calm 10.00 NULL NULL 46.4 42.8 87% 30.02 0.0
08 00:15 Calm 10.00 NULL NULL 46.4 42.8 87% 30.01 0.0
07 23:55 Calm 10.00 NULL NULL 46.4 42.8 87% 30.01 0.0
07 23:35 Calm 7.00 NULL NULL 46.4 42.8 87% 30.01 0.0
07 23:15 Calm 10.00 NULL NULL 48.2 42.8 82% 30.02 0.0
07 22:55 Calm 10.00 NULL NULL 48.2 42.8 82% 30.03 0.0
07 22:35 Calm 10.00 NULL NULL 48.2 42.8 82% 30.03 0.0
07 22:15 Calm 10.00 NULL NULL 50 42.8 76% 30.02 0.0
07 21:55 Calm 10.00 NULL NULL 50 42.8 76% 30.01 0.0
07 21:35 Calm 10.00 NULL NULL 50 41 71% 30.01 0.0
07 21:15 Calm 10.00 NULL NULL 51.8 42.8 72% 30.01 0.0
07 20:55 Calm 10.00 NULL NULL 51.8 42.8 72% 30 0.0
07 20:35 Calm 10.00 NULL NULL 51.8 42.8 72% 30 0.0
07 20:15 Calm 10.00 NULL NULL 53.6 42.8 67% 29.99 0.0
07 19:55 Calm 10.00 NULL NULL 55.4 42.8 63% 29.98 0.0
07 19:35 NW 5 10.00 NULL NULL 59 39.2 48% 29.98 0.0
07 19:15 Calm 10.00 NULL NULL 60.8 37.4 42% 29.98 0.0
07 18:55 N 6 10.00 NULL NULL 62.6 37.4 39% 29.97 0.0
07 18:15 N 8 10.00 NULL NULL 64.4 35.6 34% 29.96 0.0
07 17:55 NW 7 10.00 NULL NULL 64.4 37.4 37% 29.97 0.0
07 17:35 N 7 10.00 NULL NULL 64.4 37.4 37% 29.97 0.0
07 17:15 Calm 10.00 NULL NULL 64.4 37.4 37% 29.97 0.0
07 16:55 NW 9 10.00 NULL NULL 64.4 35.6 34% 29.97 0.0
07 16:35 NW 12 10.00 NULL NULL 64.4 39.2 40% 29.97 0.0
07 16:15 Vrbl 7 10.00 NULL NULL 64.4 39.2 40% 29.97 0.0
07 15:55 N 7 G 18 10.00 NULL NULL 64.4 37.4 37% 29.97 0.0
07 15:35 NE 6 G 14 10.00 NULL NULL 62.6 37.4 39% 29.97 0.0
07 15:15 NE 7 10.00 NULL NULL 62.6 37.4 39% 29.98 0.0
07 14:55 Calm 10.00 NULL NULL 64.4 37.4 37% 29.97 0.0
07 14:35 Vrbl 5 G 13 10.00 NULL NULL 64.4 37.4 37% 29.97 0.0
07 14:15 NW 6 G 13 10.00 NULL NULL 64.4 39.2 40% 29.98 0.0
07 13:55 Vrbl 5 G 14 10.00 NULL NULL 62.6 37.4 39% 29.98 0.0
07 13:35 N 5 G 14 10.00 NULL NULL 62.6 39.2 42% 29.98 0.0
07 13:15 N 8 G 14 10.00 NULL NULL 60.8 39.2 45% 29.99 0.0
07 12:55 NE 6 G 15 10.00 NULL NULL 62.6 39.2 42% 29.99 0.0
07 12:35 Vrbl 6 G 18 10.00 NULL NULL 60.8 39.2 45% 30 0.0
07 12:15 NE 9 10.00 NULL NULL 60.8 41 48% 30.01 0.0
07 11:55 N 12 G 18 10.00 NULL NULL 60.8 41 48% 30.02 0.0
07 11:35 Vrbl 3 G 18 10.00 NULL NULL 59 41 51% 30.02 0.0
07 11:15 N 8 G 15 10.00 NULL NULL 59 41 51% 30.02 0.0
07 10:55 N 12 10.00 NULL NULL 59 41 51% 30.02 0.0
07 10:35 N 9 10.00 NULL NULL 59 42.8 55% 30.03 0.0
07 10:15 NE 8 G 14 10.00 NULL NULL 57.2 42.8 59% 30.02 0.0
07 09:55 N 12 10.00 NULL NULL 57.2 42.8 59% 30.02 0.0
07 09:35 NE 9 10.00 NULL NULL 55.4 42.8 63% 30.02 0.0
07 09:15 NE 8 10.00 NULL NULL 55.4 42.8 63% 30.02 0.0
07 08:35 NE 6 G 13 10.00 NULL NULL 53.6 44.6 72% 30.01 0.0
07 08:15 NE 7 G 14 10.00 NULL NULL 51.8 44.6 77% 30.01 0.0
07 07:55 NE 9 10.00 NULL NULL 51.8 44.6 77% 30 0.0
07 07:35 NE 9 10.00 NULL NULL 50 44.6 82% 47 30 0.0
07 07:15 N 8 10.00 NULL NULL 50 44.6 82% 47 29.99 0.0
07 06:55 N 6 10.00 NULL NULL 48.2 44.6 87% 46 29.99 0.0
07 06:35 N 7 10.00 NULL NULL 46.4 44.6 93% 43 29.99 0.0
07 06:15 N 7 10.00 NULL NULL 46.4 44.6 93% 43 29.98 0.0
07 05:55 N 7 10.00 NULL NULL 46.4 44.6 93% 43 29.97 0.0
07 05:35 N 7 10.00 NULL NULL 46.4 44.6 93% 43 29.96 0.0
07 05:15 N 6 10.00 NULL NULL 46.4 44.6 93% 44 29.96 0.0
07 04:55 N 7 10.00 NULL NULL 48.2 44.6 87% 46 29.96 0.0
07 04:35 N 7 10.00 NULL NULL 48.2 44.6 87% 46 29.96 0.0
07 04:15 N 7 10.00 NULL NULL 48.2 46.4 94% 46 29.96 0.0
07 03:55 N 6 10.00 NULL NULL 48.2 46.4 94% 46 29.96 0.0
07 03:35 N 6 10.00 NULL NULL 50 46.4 88% 48 29.96 0.0
07 03:15 N 6 10.00 NULL NULL 50 46.4 88% 48 29.96 0.0
07 02:55 N 7 10.00 NULL NULL 50 46.4 88% 48 29.95 0.0
07 02:35 N 7 10.00 NULL NULL 50 48.2 94% 48 29.95 0.0
07 02:15 N 7 10.00 NULL NULL 50 48.2 94% 48 29.96 0.0
07 01:55 N 6 10.00 NULL NULL 50 48.2 94% 48 29.96 0.0
07 01:35 N 5 10.00 NULL NULL 50 48.2 94% 49 29.97 0.0
07 01:15 N 5 10.00 NULL NULL 50 48.2 94% 49 29.96 0.0
07 00:55 N 5 10.00 NULL NULL 50 48.2 94% 49 29.97 0.0
07 00:35 N 5 10.00 NULL NULL 50 48.2 94% 49 29.96 0.0
07 00:15 N 5 10.00 NULL NULL 50 48.2 94% 49 29.97 0.0
06 23:55 Calm 10.00 NULL NULL 50 50 100% 29.97 0.0
06 23:35 N 3 10.00 NULL NULL 50 50 100% 29.98 0.0
06 23:15 N 6 10.00 NULL NULL 51.8 50 94% 29.98 0.0
06 22:35 Calm 10.00 NULL NULL 51.8 50 94% 29.97 0.0
06 22:10 Calm 10.00 NULL NULL 51.8 51.8 100% 29.97 0.0
06 21:55 Calm 10.00 NULL NULL 51.8 51.8 100% 29.96 0.0
06 21:35 NE 5 10.00 NULL NULL 51.8 51.8 100% 29.95 0.0
06 21:15 N 7 10.00 NULL NULL 51.8 51.8 100% 29.95 0.0
06 20:55 NE 5 10.00 NULL NULL 51.8 51.8 100% 29.96 0.0 0.02
06 20:35 Calm 9.00 NULL NULL 51.8 51.8 100% 29.97 0.0
06 20:15 N 5 5.00 Fog/Mist NULL 51.8 51.8 100% 29.98 0.0
06 19:55 N 5 8.00 NULL NULL 51.8 51.8 100% 29.98 0.0
06 19:35 NE 5 10.00 NULL NULL 51.8 51.8 100% 29.95 0.0
06 19:15 N 10 10.00 NULL NULL 53.6 51.8 94% 29.94 0.0
06 18:55 N 7 10.00 NULL NULL 53.6 51.8 94% 29.92 0.0
06 18:35 NE 6 10.00 NULL NULL 53.6 51.8 94% 29.9 0.0
06 18:15 NE 6 10.00 NULL NULL 53.6 51.8 94% 29.93 0.0
06 17:55 N 9 9.00 NULL NULL 53.6 51.8 94% 29.94 0.0 0.01
06 17:15 Calm 9.00 NULL NULL 55.4 51.8 88% 29.93 0.0
06 16:55 NW 5 10.00 NULL NULL 55.4 53.6 94% 29.94 0.0
06 16:35 N 5 10.00 NULL NULL 55.4 51.8 88% 29.95 0.0
06 16:15 N 8 10.00 NULL NULL 55.4 51.8 88% 29.94 0.0
06 15:55 Vrbl 5 10.00 NULL NULL 55.4 53.6 94% 29.92 0.0
06 15:35 N 6 10.00 NULL NULL 55.4 53.6 94% 29.93 0.0
06 15:15 NW 7 10.00 NULL NULL 53.6 51.8 94% 29.94 0.0
06 14:55 Calm 10.00 NULL NULL 53.6 51.8 94% 29.94 0.0
06 14:35 Calm 10.00 NULL NULL 53.6 51.8 94% 29.93 0.0
06 14:15 N 12 10.00 NULL NULL 53.6 51.8 94% 29.93 0.0
06 14:10 N 10 10.00 NULL NULL 53.6 51.8 94% 29.93 0.0
06 13:55 NE 5 9.00 NULL NULL 51.8 51.8 100% 29.94 0.0
06 13:35 NE 8 1.00 Fog/Mist NULL 51.8 51.8 100% 29.92 0.0
06 13:15 N 9 0.75 Fog/Mist NULL 51.8 51.8 100% 29.95 0.0
06 12:55 N 7 1.50 Fog/Mist NULL 51.8 51.8 100% 29.95 0.0
06 12:35 N 3 4.00 Fog/Mist NULL 51.8 50 94% 29.94 0.0
06 12:15 N 9 3.00 Fog/Mist NULL 51.8 51.8 100% 29.91 0.0
06 11:55 N 10 2.50 Fog/Mist NULL 51.8 51.8 100% 29.92 0.0 0.09
06 11:35 N 10 3.00 Fog/Mist NULL 51.8 51.8 100% 29.92 0.0
06 11:15 N 8 1.75 Fog/Mist NULL 51.8 51.8 100% 29.92 0.0
06 10:55 NE 7 2.00 Fog/Mist NULL 51.8 50 94% 29.93 0.0
06 10:35 N 7 2.00 Fog/Mist NULL 51.8 50 94% 29.93 0.0
06 10:15 NE 5 4.00 Fog/Mist NULL 51.8 50 94% 29.94 0.0
06 09:55 NE 6 9.00 NULL NULL 51.8 50 94% 29.92 0.0
06 09:35 N 9 10.00 NULL NULL 51.8 50 94% 29.91 0.0
06 09:15 N 8 G 16 10.00 NULL NULL 50 50 100% 47 29.9 0.0
06 08:55 NE 10 10.00 NULL NULL 50 50 100% 46 29.88 0.0
06 08:35 N 10 10.00 NULL NULL 50 50 100% 46 29.87 0.0
06 08:15 N 12 10.00 NULL NULL 50 50 100% 46 29.86 0.0
06 07:55 NE 8 10.00 NULL NULL 50 50 100% 47 29.85 0.0
06 07:35 NE 6 4.00 Fog/Mist NULL 50 50 100% 48 29.87 0.0
06 07:15 Vrbl 5 3.00 Fog/Mist NULL 50 50 100% 49 29.88 0.0
06 06:55 Calm 8.00 NULL NULL 50 50 100% 29.86 0.0
06 06:35 N 10 7.00 NULL NULL 50 50 100% 46 29.85 0.0
06 06:15 N 8 G 14 10.00 NULL NULL 51.8 50 94% 29.83 0.0
06 05:55 N 9 10.00 NULL NULL 51.8 50 94% 29.82 0.0
06 05:35 NE 5 10.00 NULL NULL 51.8 50 94% 29.81 0.0
06 05:15 NE 6 10.00 NULL NULL 51.8 50 94% 29.82 0.0
06 04:55 NE 6 10.00 NULL NULL 51.8 50 94% 29.8 0.0
06 04:35 NE 10 10.00 NULL NULL 51.8 51.8 100% 29.8 0.0
Date Time (cdt) Wind (mph) Vis. (mi.) Weather Sky Cond. Air Dwpt Max. Min. Relative Humidity Wind Chill (°F) Heat Index (°F) altimeter (in) sea level (mb) 1 hr 3 hr 6 hr
6 hour
Temperature (ºF) Pressure Precipitation (in)